Reecon Whale — 9HA2885 — position and weather

sailwx.info

Track history (hours):
 
Tides and Currents Weather Stations Pressure Air Temp Water Temp Dewpoint Dewpoint Depression Visibility Wind Speed Wind Dir Waves Ship Positions

Reecon Whale

Last reported at 2015-Jan-19 20:21 UTC. Time now 2015-Jan-31 19:18 UTC.
Position N 08°27' W 015°24'.
Warning: this ship's position is 11 days out of date.

Length 145 m; draft 8.8 m.

Type: Ship. MMSI: 256579000.

Date/timePositionNaut miles runAvg speedWind from/ knotsBaromVisibWave heightAir tempDewpointWater temp
2015-Jan-19 20:21N 08°27' W 015°24'1012.5
2015-Jan-19 19:33N 08°34' W 015°31'1312.8
2015-Jan-19 18:33N 08°43' W 015°41'1312.9
2015-Jan-19 17:33N 08°52' W 015°49'1312.9
2015-Jan-19 16:33N 09°02' W 015°58'1313.2
2015-Jan-19 15:33N 09°12' W 016°07'1313.0
2015-Jan-19 14:33N 09°21' W 016°16'1312.6
2015-Jan-19 13:33N 09°31' W 016°24'1312.7
2015-Jan-19 12:33N 09°40' W 016°33'  
2015-Jan-12 11:33N 35°59' W 005°33'9 9.1
2015-Jan-12 10:33N 36°04' W 005°23'5 4.7
2015-Jan-12 09:33N 36°08' W 005°23'0 0.0
2015-Jan-12 08:33N 36°08' W 005°23'0 0.0
2015-Jan-12 07:33N 36°08' W 005°23'0 0.0
2015-Jan-12 06:33N 36°08' W 005°23'0 0.0
2015-Jan-12 05:33N 36°08' W 005°23'0 0.0
2015-Jan-12 04:33N 36°08' W 005°23'0 0.2
2015-Jan-12 03:32N 36°08' W 005°22'0 0.1
2015-Jan-12 02:33N 36°08' W 005°22'0 0.0
2015-Jan-12 01:33N 36°08' W 005°22'0 0.0
2015-Jan-12 00:33N 36°08' W 005°22'0 0.0
2015-Jan-11 23:33N 36°08' W 005°22'0 0.1
2015-Jan-11 22:33N 36°08' W 005°22'2 1.9
2015-Jan-11 21:33N 36°06' W 005°22'8 8.4
2015-Jan-11 20:33N 36°05' W 005°12'17511.3
2015-Jan-11 05:08N 36°46' W 001°41'711.6
2015-Jan-11 04:33N 36°51' W 001°35'1211.6
2015-Jan-11 03:33N 36°59' W 001°24'1212.3
2015-Jan-11 02:33N 37°07' W 001°12'1212.3
2015-Jan-11 01:33N 37°15' W 001°01'1212.3
2015-Jan-11 00:33N 37°23' W 000°50'1212.1
2015-Jan-10 23:33N 37°31' W 000°38'1211.7
2015-Jan-10 22:34N 37°40' W 000°29'1111.3
2015-Jan-10 21:33N 37°50' W 000°21'1211.6
2015-Jan-10 20:33N 37°59' W 000°13'1111.4
2015-Jan-10 19:33N 38°09' W 000°05'1111.4
2015-Jan-10 18:33N 38°18' E 000°03'1111.2
2015-Jan-10 17:32N 38°28' E 000°11'5110.1
2015-Jan-10 12:33N 39°18' E 000°02'1111.6
2015-Jan-10 11:33N 39°28' W 000°06'1111.5
2015-Jan-10 10:33N 39°38' W 000°13'  
Track history (hours):
 
Tides and Currents Weather Stations Pressure Air Temp Water Temp Dewpoint Dewpoint Depression Visibility Wind Speed Wind Dir Waves Ship Positions

Reecon Whale

Last reported at 2015-Jan-19 20:21 UTC. Time now 2015-Jan-31 19:18 UTC.
Position N 08°27' W 015°24'.
Warning: this ship's position is 11 days out of date.

Length 145 m; draft 8.8 m.

Type: Ship. MMSI: 256579000.

Date/timePositionNaut miles runAvg speedWind from/ knotsBaromVisibWave heightAir tempDewpointWater temp
2015-Jan-19 20:21N 08°27' W 015°24'1012.5
2015-Jan-19 19:33N 08°34' W 015°31'1312.8
2015-Jan-19 18:33N 08°43' W 015°41'1312.9
2015-Jan-19 17:33N 08°52' W 015°49'1312.9
2015-Jan-19 16:33N 09°02' W 015°58'1313.2
2015-Jan-19 15:33N 09°12' W 016°07'1313.0
2015-Jan-19 14:33N 09°21' W 016°16'1312.6
2015-Jan-19 13:33N 09°31' W 016°24'1312.7
2015-Jan-19 12:33N 09°40' W 016°33'  
2015-Jan-12 11:33N 35°59' W 005°33'9 9.1
2015-Jan-12 10:33N 36°04' W 005°23'5 4.7
2015-Jan-12 09:33N 36°08' W 005°23'0 0.0
2015-Jan-12 08:33N 36°08' W 005°23'0 0.0
2015-Jan-12 07:33N 36°08' W 005°23'0 0.0
2015-Jan-12 06:33N 36°08' W 005°23'0 0.0
2015-Jan-12 05:33N 36°08' W 005°23'0 0.0
2015-Jan-12 04:33N 36°08' W 005°23'0 0.2
2015-Jan-12 03:32N 36°08' W 005°22'0 0.1
2015-Jan-12 02:33N 36°08' W 005°22'0 0.0
2015-Jan-12 01:33N 36°08' W 005°22'0 0.0
2015-Jan-12 00:33N 36°08' W 005°22'0 0.0
2015-Jan-11 23:33N 36°08' W 005°22'0 0.1
2015-Jan-11 22:33N 36°08' W 005°22'2 1.9
2015-Jan-11 21:33N 36°06' W 005°22'8 8.4
2015-Jan-11 20:33N 36°05' W 005°12'17511.3
2015-Jan-11 05:08N 36°46' W 001°41'711.6
2015-Jan-11 04:33N 36°51' W 001°35'1211.6
2015-Jan-11 03:33N 36°59' W 001°24'1212.3
2015-Jan-11 02:33N 37°07' W 001°12'1212.3
2015-Jan-11 01:33N 37°15' W 001°01'1212.3
2015-Jan-11 00:33N 37°23' W 000°50'1212.1
2015-Jan-10 23:33N 37°31' W 000°38'1211.7
2015-Jan-10 22:34N 37°40' W 000°29'1111.3
2015-Jan-10 21:33N 37°50' W 000°21'1211.6
2015-Jan-10 20:33N 37°59' W 000°13'1111.4
2015-Jan-10 19:33N 38°09' W 000°05'1111.4
2015-Jan-10 18:33N 38°18' E 000°03'1111.2
2015-Jan-10 17:32N 38°28' E 000°11'5110.1
2015-Jan-10 12:33N 39°18' E 000°02'1111.6
2015-Jan-10 11:33N 39°28' W 000°06'1111.5
2015-Jan-10 10:33N 39°38' W 000°13'  

Dump ship's entire track history